Terminal Aerodrome Forecast
Issued by NWS

Home | Current Version | Previous Version | Text Only | Print | Product List | Glossary On
Versions: 1 2 3 4 5 6 7 8 9 10 11 12 13 14 15 16 17 18 19 20 21
000
FTUS41 KPBZ 020500
TAFDUJ
TAF
KDUJ 020520Z 0206/0306 18005KT P6SM SKC
     FM021400 18007KT P6SM BKN100 WS020/20040KT
     FM022000 20012G22KT P6SM -SHRA OVC035
     FM030000 21015G25KT 4SM -SHRA OVC025
     FM030200 21010G20KT 3SM RA OVC008=

USA.gov is the U.S. government's official web portal to all federal, state and local government web resources and services.